Elizaville, New York
Current Conditions -  °F | °C
As of 10:53 PM on Saturday 25 Oct 2014 (Local Time) from KPOU Reporting Station
Overcast Overcast  
Wind Chill: 57°   Ceiling: 5500
Heat Index: 57°   Visibility: 10mi
Dew Point: 46°   Wind: 0mph
Humidity: 67%   Direction: NA
Pressure: 29.57"   Gusts: NA
Location:  42.05°N, 73.79°W
Report Text: KPOU 260253Z AUTO 00000KT 10SM BKN055 OVC075 14/08 A2957 RMK AO2 SLP009 T01390078 56005 TSNO
Loading
Personal Weather Stations






























Interactive Weather Map
Tropical Storm Tracking
New forecast layout! Learn more

10-Day Weather Forecast

Advertisements
Track Severe Weather on mobile